<?xml version="1.0" encoding="UTF-8" standalone="no" ?>
<gpx xmlns="http://www.topografix.com/GPX/1/1" xmlns:xsi="http://www.w3.org/2001/XMLSchema-instance" xsi:schemaLocation="http://www.topografix.com/GPX/1/1 http://www.topografix.com/GPX/1/1/gpx.xsd" version="1.1" creator="VisuGPX - https://www.visugpx.com">
  <metadata>
    <name>marche_12_km_cool_2023</name>
  </metadata>
  <trk>
    <name><![CDATA[marche 12 km cool 2023-16275183]]></name>
    <extensions>
      <line xmlns="http://www.topografix.com/GPX/gpx_style/0/2">
        <color>0000FF</color>
        <width>4</width>
      </line>
    </extensions>
    <trkseg>
      <trkpt lat="47.72226" lon="3.58233">
        <ele>137</ele>
        <time>2023-05-12T12:23:20Z</time>
      </trkpt>
      <trkpt lat="47.72206" lon="3.58185">
        <ele>138</ele>
        <time>2023-05-12T12:23:50Z</time>
      </trkpt>
      <trkpt lat="47.72175" lon="3.58186">
        <ele>139</ele>
        <time>2023-05-12T12:24:15Z</time>
      </trkpt>
      <trkpt lat="47.7212" lon="3.58059">
        <ele>144</ele>
        <time>2023-05-12T12:25:37Z</time>
      </trkpt>
      <trkpt lat="47.72108" lon="3.57861">
        <ele>152</ele>
        <time>2023-05-12T12:27:24Z</time>
      </trkpt>
      <trkpt lat="47.72024" lon="3.57846">
        <ele>156</ele>
        <time>2023-05-12T12:28:31Z</time>
      </trkpt>
      <trkpt lat="47.71991" lon="3.57569">
        <ele>163</ele>
        <time>2023-05-12T12:31:03Z</time>
      </trkpt>
      <trkpt lat="47.71992" lon="3.57343">
        <ele>160</ele>
        <time>2023-05-12T12:33:05Z</time>
      </trkpt>
      <trkpt lat="47.72111" lon="3.57372">
        <ele>151</ele>
        <time>2023-05-12T12:34:41Z</time>
      </trkpt>
      <trkpt lat="47.72136" lon="3.57446">
        <ele>150</ele>
        <time>2023-05-12T12:35:26Z</time>
      </trkpt>
      <trkpt lat="47.72222" lon="3.57604">
        <ele>151</ele>
        <time>2023-05-12T12:37:15Z</time>
      </trkpt>
      <trkpt lat="47.72264" lon="3.57911">
        <ele>141</ele>
        <time>2023-05-12T12:40:04Z</time>
      </trkpt>
      <trkpt lat="47.723" lon="3.57913">
        <ele>143</ele>
        <time>2023-05-12T12:40:33Z</time>
      </trkpt>
      <trkpt lat="47.72398" lon="3.57857">
        <ele>153</ele>
        <time>2023-05-12T12:41:57Z</time>
      </trkpt>
      <trkpt lat="47.72455" lon="3.57816">
        <ele>161</ele>
        <time>2023-05-12T12:42:48Z</time>
      </trkpt>
      <trkpt lat="47.7249" lon="3.57748">
        <ele>166</ele>
        <time>2023-05-12T12:43:34Z</time>
      </trkpt>
      <trkpt lat="47.7252" lon="3.57636">
        <ele>177</ele>
        <time>2023-05-12T12:44:39Z</time>
      </trkpt>
      <trkpt lat="47.72521" lon="3.57555">
        <ele>183</ele>
        <time>2023-05-12T12:45:22Z</time>
      </trkpt>
      <trkpt lat="47.72533" lon="3.57456">
        <ele>193</ele>
        <time>2023-05-12T12:46:17Z</time>
      </trkpt>
      <trkpt lat="47.72549" lon="3.57346">
        <ele>208</ele>
        <time>2023-05-12T12:47:17Z</time>
      </trkpt>
      <trkpt lat="47.72535" lon="3.57216">
        <ele>221</ele>
        <time>2023-05-12T12:48:28Z</time>
      </trkpt>
      <trkpt lat="47.725" lon="3.57252">
        <ele>216</ele>
        <time>2023-05-12T12:49:02Z</time>
      </trkpt>
      <trkpt lat="47.72518" lon="3.57131">
        <ele>227</ele>
        <time>2023-05-12T12:50:09Z</time>
      </trkpt>
      <trkpt lat="47.72541" lon="3.57113">
        <ele>229</ele>
        <time>2023-05-12T12:50:30Z</time>
      </trkpt>
      <trkpt lat="47.72621" lon="3.57072">
        <ele>235</ele>
        <time>2023-05-12T12:51:37Z</time>
      </trkpt>
      <trkpt lat="47.72651" lon="3.5716">
        <ele>232</ele>
        <time>2023-05-12T12:52:31Z</time>
      </trkpt>
      <trkpt lat="47.72672" lon="3.57277">
        <ele>229</ele>
        <time>2023-05-12T12:53:36Z</time>
      </trkpt>
      <trkpt lat="47.72667" lon="3.57369">
        <ele>225</ele>
        <time>2023-05-12T12:54:26Z</time>
      </trkpt>
      <trkpt lat="47.72671" lon="3.57526">
        <ele>221</ele>
        <time>2023-05-12T12:55:50Z</time>
      </trkpt>
      <trkpt lat="47.72669" lon="3.57618">
        <ele>217</ele>
        <time>2023-05-12T12:56:40Z</time>
      </trkpt>
      <trkpt lat="47.7263" lon="3.57829">
        <ele>201</ele>
        <time>2023-05-12T12:58:38Z</time>
      </trkpt>
      <trkpt lat="47.72629" lon="3.57929">
        <ele>202</ele>
        <time>2023-05-12T12:59:31Z</time>
      </trkpt>
      <trkpt lat="47.72793" lon="3.57804">
        <ele>209</ele>
        <time>2023-05-12T13:01:59Z</time>
      </trkpt>
      <trkpt lat="47.72814" lon="3.57861">
        <ele>203</ele>
        <time>2023-05-12T13:02:34Z</time>
      </trkpt>
      <trkpt lat="47.72839" lon="3.5788">
        <ele>199</ele>
        <time>2023-05-12T13:02:56Z</time>
      </trkpt>
      <trkpt lat="47.72864" lon="3.57893">
        <ele>199</ele>
        <time>2023-05-12T13:03:18Z</time>
      </trkpt>
      <trkpt lat="47.72908" lon="3.5791">
        <ele>200</ele>
        <time>2023-05-12T13:03:54Z</time>
      </trkpt>
      <trkpt lat="47.72927" lon="3.57917">
        <ele>201</ele>
        <time>2023-05-12T13:04:10Z</time>
      </trkpt>
      <trkpt lat="47.72936" lon="3.57883">
        <ele>205</ele>
        <time>2023-05-12T13:04:29Z</time>
      </trkpt>
      <trkpt lat="47.72976" lon="3.57924">
        <ele>205</ele>
        <time>2023-05-12T13:05:08Z</time>
      </trkpt>
      <trkpt lat="47.73016" lon="3.57976">
        <ele>203</ele>
        <time>2023-05-12T13:05:51Z</time>
      </trkpt>
      <trkpt lat="47.73056" lon="3.58019">
        <ele>201</ele>
        <time>2023-05-12T13:06:30Z</time>
      </trkpt>
      <trkpt lat="47.7309" lon="3.58055">
        <ele>201</ele>
        <time>2023-05-12T13:07:04Z</time>
      </trkpt>
      <trkpt lat="47.73137" lon="3.58133">
        <ele>194</ele>
        <time>2023-05-12T13:08:00Z</time>
      </trkpt>
      <trkpt lat="47.73176" lon="3.58132">
        <ele>195</ele>
        <time>2023-05-12T13:08:31Z</time>
      </trkpt>
      <trkpt lat="47.732" lon="3.58172">
        <ele>188</ele>
        <time>2023-05-12T13:09:00Z</time>
      </trkpt>
      <trkpt lat="47.73228" lon="3.5822">
        <ele>181</ele>
        <time>2023-05-12T13:09:35Z</time>
      </trkpt>
      <trkpt lat="47.73252" lon="3.58297">
        <ele>173</ele>
        <time>2023-05-12T13:10:20Z</time>
      </trkpt>
      <trkpt lat="47.73194" lon="3.58413">
        <ele>159</ele>
        <time>2023-05-12T13:11:38Z</time>
      </trkpt>
      <trkpt lat="47.73247" lon="3.58575">
        <ele>148</ele>
        <time>2023-05-12T13:13:15Z</time>
      </trkpt>
      <trkpt lat="47.733" lon="3.58518">
        <ele>147</ele>
        <time>2023-05-12T13:14:07Z</time>
      </trkpt>
      <trkpt lat="47.73323" lon="3.5839">
        <ele>153</ele>
        <time>2023-05-12T13:15:19Z</time>
      </trkpt>
      <trkpt lat="47.7335" lon="3.58273">
        <ele>157</ele>
        <time>2023-05-12T13:16:25Z</time>
      </trkpt>
      <trkpt lat="47.73377" lon="3.58126">
        <ele>161</ele>
        <time>2023-05-12T13:17:47Z</time>
      </trkpt>
      <trkpt lat="47.73425" lon="3.57968">
        <ele>165</ele>
        <time>2023-05-12T13:19:21Z</time>
      </trkpt>
      <trkpt lat="47.73455" lon="3.57841">
        <ele>163</ele>
        <time>2023-05-12T13:20:33Z</time>
      </trkpt>
      <trkpt lat="47.7344" lon="3.57697">
        <ele>170</ele>
        <time>2023-05-12T13:21:52Z</time>
      </trkpt>
      <trkpt lat="47.7341" lon="3.57511">
        <ele>171</ele>
        <time>2023-05-12T13:23:35Z</time>
      </trkpt>
      <trkpt lat="47.73431" lon="3.57449">
        <ele>168</ele>
        <time>2023-05-12T13:24:12Z</time>
      </trkpt>
      <trkpt lat="47.73468" lon="3.57441">
        <ele>169</ele>
        <time>2023-05-12T13:24:42Z</time>
      </trkpt>
      <trkpt lat="47.73456" lon="3.57397">
        <ele>171</ele>
        <time>2023-05-12T13:25:08Z</time>
      </trkpt>
      <trkpt lat="47.73499" lon="3.57383">
        <ele>175</ele>
        <time>2023-05-12T13:25:43Z</time>
      </trkpt>
      <trkpt lat="47.73479" lon="3.57315">
        <ele>179</ele>
        <time>2023-05-12T13:26:23Z</time>
      </trkpt>
      <trkpt lat="47.73467" lon="3.57258">
        <ele>182</ele>
        <time>2023-05-12T13:26:55Z</time>
      </trkpt>
      <trkpt lat="47.73459" lon="3.57211">
        <ele>186</ele>
        <time>2023-05-12T13:27:21Z</time>
      </trkpt>
      <trkpt lat="47.73447" lon="3.57153">
        <ele>191</ele>
        <time>2023-05-12T13:27:54Z</time>
      </trkpt>
      <trkpt lat="47.73398" lon="3.57183">
        <ele>184</ele>
        <time>2023-05-12T13:28:36Z</time>
      </trkpt>
      <trkpt lat="47.7336" lon="3.57209">
        <ele>182</ele>
        <time>2023-05-12T13:29:10Z</time>
      </trkpt>
      <trkpt lat="47.73347" lon="3.57189">
        <ele>185</ele>
        <time>2023-05-12T13:29:25Z</time>
      </trkpt>
      <trkpt lat="47.73299" lon="3.57139">
        <ele>194</ele>
        <time>2023-05-12T13:30:12Z</time>
      </trkpt>
      <trkpt lat="47.73212" lon="3.57087">
        <ele>200</ele>
        <time>2023-05-12T13:31:27Z</time>
      </trkpt>
      <trkpt lat="47.73163" lon="3.57063">
        <ele>202</ele>
        <time>2023-05-12T13:32:08Z</time>
      </trkpt>
      <trkpt lat="47.73145" lon="3.57092">
        <ele>201</ele>
        <time>2023-05-12T13:32:29Z</time>
      </trkpt>
      <trkpt lat="47.73246" lon="3.57368">
        <ele>195</ele>
        <time>2023-05-12T13:35:19Z</time>
      </trkpt>
      <trkpt lat="47.73238" lon="3.57395">
        <ele>197</ele>
        <time>2023-05-12T13:35:34Z</time>
      </trkpt>
      <trkpt lat="47.73143" lon="3.57214">
        <ele>204</ele>
        <time>2023-05-12T13:37:38Z</time>
      </trkpt>
      <trkpt lat="47.73119" lon="3.57189">
        <ele>206</ele>
        <time>2023-05-12T13:38:02Z</time>
      </trkpt>
      <trkpt lat="47.73091" lon="3.57158">
        <ele>209</ele>
        <time>2023-05-12T13:38:29Z</time>
      </trkpt>
      <trkpt lat="47.73061" lon="3.5713">
        <ele>212</ele>
        <time>2023-05-12T13:38:58Z</time>
      </trkpt>
      <trkpt lat="47.73025" lon="3.57096">
        <ele>218</ele>
        <time>2023-05-12T13:39:32Z</time>
      </trkpt>
      <trkpt lat="47.72993" lon="3.5707">
        <ele>223</ele>
        <time>2023-05-12T13:40:01Z</time>
      </trkpt>
      <trkpt lat="47.72966" lon="3.56991">
        <ele>225</ele>
        <time>2023-05-12T13:40:49Z</time>
      </trkpt>
      <trkpt lat="47.72956" lon="3.56942">
        <ele>226</ele>
        <time>2023-05-12T13:41:16Z</time>
      </trkpt>
      <trkpt lat="47.72927" lon="3.56878">
        <ele>230</ele>
        <time>2023-05-12T13:41:58Z</time>
      </trkpt>
      <trkpt lat="47.72908" lon="3.56868">
        <ele>231</ele>
        <time>2023-05-12T13:42:14Z</time>
      </trkpt>
      <trkpt lat="47.72704" lon="3.57027">
        <ele>238</ele>
        <time>2023-05-12T13:45:19Z</time>
      </trkpt>
      <trkpt lat="47.72645" lon="3.56913">
        <ele>241</ele>
        <time>2023-05-12T13:46:36Z</time>
      </trkpt>
      <trkpt lat="47.72525" lon="3.56765">
        <ele>243</ele>
        <time>2023-05-12T13:48:41Z</time>
      </trkpt>
      <trkpt lat="47.72514" lon="3.56732">
        <ele>244</ele>
        <time>2023-05-12T13:49:01Z</time>
      </trkpt>
      <trkpt lat="47.72489" lon="3.5667">
        <ele>244</ele>
        <time>2023-05-12T13:49:40Z</time>
      </trkpt>
      <trkpt lat="47.72475" lon="3.5664">
        <ele>244</ele>
        <time>2023-05-12T13:49:59Z</time>
      </trkpt>
      <trkpt lat="47.72489" lon="3.5662">
        <ele>246</ele>
        <time>2023-05-12T13:50:15Z</time>
      </trkpt>
      <trkpt lat="47.72467" lon="3.56611">
        <ele>245</ele>
        <time>2023-05-12T13:50:33Z</time>
      </trkpt>
      <trkpt lat="47.72444" lon="3.56569">
        <ele>245</ele>
        <time>2023-05-12T13:51:02Z</time>
      </trkpt>
      <trkpt lat="47.72394" lon="3.56387">
        <ele>246</ele>
        <time>2023-05-12T13:52:48Z</time>
      </trkpt>
      <trkpt lat="47.72355" lon="3.56264">
        <ele>247</ele>
        <time>2023-05-12T13:54:01Z</time>
      </trkpt>
      <trkpt lat="47.72349" lon="3.56227">
        <ele>247</ele>
        <time>2023-05-12T13:54:22Z</time>
      </trkpt>
      <trkpt lat="47.72346" lon="3.56165">
        <ele>248</ele>
        <time>2023-05-12T13:54:55Z</time>
      </trkpt>
      <trkpt lat="47.72328" lon="3.56017">
        <ele>248</ele>
        <time>2023-05-12T13:56:16Z</time>
      </trkpt>
      <trkpt lat="47.72233" lon="3.55975">
        <ele>247</ele>
        <time>2023-05-12T13:57:36Z</time>
      </trkpt>
      <trkpt lat="47.72152" lon="3.55948">
        <ele>244</ele>
        <time>2023-05-12T13:58:42Z</time>
      </trkpt>
      <trkpt lat="47.72087" lon="3.55942">
        <ele>243</ele>
        <time>2023-05-12T13:59:34Z</time>
      </trkpt>
      <trkpt lat="47.7194" lon="3.55939">
        <ele>246</ele>
        <time>2023-05-12T14:01:32Z</time>
      </trkpt>
      <trkpt lat="47.71948" lon="3.56031">
        <ele>241</ele>
        <time>2023-05-12T14:02:22Z</time>
      </trkpt>
      <trkpt lat="47.71971" lon="3.56132">
        <ele>231</ele>
        <time>2023-05-12T14:03:20Z</time>
      </trkpt>
      <trkpt lat="47.72004" lon="3.56196">
        <ele>218</ele>
        <time>2023-05-12T14:04:03Z</time>
      </trkpt>
      <trkpt lat="47.71981" lon="3.56269">
        <ele>211</ele>
        <time>2023-05-12T14:04:46Z</time>
      </trkpt>
      <trkpt lat="47.71974" lon="3.56304">
        <ele>206</ele>
        <time>2023-05-12T14:05:06Z</time>
      </trkpt>
      <trkpt lat="47.71904" lon="3.56305">
        <ele>211</ele>
        <time>2023-05-12T14:06:02Z</time>
      </trkpt>
      <trkpt lat="47.71825" lon="3.563">
        <ele>215</ele>
        <time>2023-05-12T14:07:05Z</time>
      </trkpt>
      <trkpt lat="47.71776" lon="3.56349">
        <ele>209</ele>
        <time>2023-05-12T14:07:53Z</time>
      </trkpt>
      <trkpt lat="47.71598" lon="3.5636">
        <ele>226</ele>
        <time>2023-05-12T14:10:15Z</time>
      </trkpt>
      <trkpt lat="47.71527" lon="3.56379">
        <ele>229</ele>
        <time>2023-05-12T14:11:13Z</time>
      </trkpt>
      <trkpt lat="47.7153" lon="3.56413">
        <ele>226</ele>
        <time>2023-05-12T14:11:32Z</time>
      </trkpt>
      <trkpt lat="47.71712" lon="3.56404">
        <ele>214</ele>
        <time>2023-05-12T14:13:57Z</time>
      </trkpt>
      <trkpt lat="47.71775" lon="3.56402">
        <ele>208</ele>
        <time>2023-05-12T14:14:48Z</time>
      </trkpt>
      <trkpt lat="47.71812" lon="3.56429">
        <ele>204</ele>
        <time>2023-05-12T14:15:21Z</time>
      </trkpt>
      <trkpt lat="47.71838" lon="3.56435">
        <ele>201</ele>
        <time>2023-05-12T14:15:42Z</time>
      </trkpt>
      <trkpt lat="47.71848" lon="3.56459">
        <ele>203</ele>
        <time>2023-05-12T14:15:57Z</time>
      </trkpt>
      <trkpt lat="47.7187" lon="3.56513">
        <ele>205</ele>
        <time>2023-05-12T14:16:31Z</time>
      </trkpt>
      <trkpt lat="47.71846" lon="3.56503">
        <ele>207</ele>
        <time>2023-05-12T14:16:51Z</time>
      </trkpt>
      <trkpt lat="47.71807" lon="3.56456">
        <ele>208</ele>
        <time>2023-05-12T14:17:31Z</time>
      </trkpt>
      <trkpt lat="47.71773" lon="3.56446">
        <ele>211</ele>
        <time>2023-05-12T14:17:59Z</time>
      </trkpt>
      <trkpt lat="47.71679" lon="3.56444">
        <ele>219</ele>
        <time>2023-05-12T14:19:14Z</time>
      </trkpt>
      <trkpt lat="47.71633" lon="3.56436">
        <ele>221</ele>
        <time>2023-05-12T14:19:51Z</time>
      </trkpt>
      <trkpt lat="47.71624" lon="3.56458">
        <ele>224</ele>
        <time>2023-05-12T14:20:05Z</time>
      </trkpt>
      <trkpt lat="47.71626" lon="3.56485">
        <ele>227</ele>
        <time>2023-05-12T14:20:20Z</time>
      </trkpt>
      <trkpt lat="47.71618" lon="3.56516">
        <ele>230</ele>
        <time>2023-05-12T14:20:38Z</time>
      </trkpt>
      <trkpt lat="47.71611" lon="3.56541">
        <ele>231</ele>
        <time>2023-05-12T14:20:52Z</time>
      </trkpt>
      <trkpt lat="47.71608" lon="3.56563">
        <ele>233</ele>
        <time>2023-05-12T14:21:04Z</time>
      </trkpt>
      <trkpt lat="47.71558" lon="3.56569">
        <ele>235</ele>
        <time>2023-05-12T14:21:45Z</time>
      </trkpt>
      <trkpt lat="47.71514" lon="3.56581">
        <ele>237</ele>
        <time>2023-05-12T14:22:20Z</time>
      </trkpt>
      <trkpt lat="47.71465" lon="3.56595">
        <ele>238</ele>
        <time>2023-05-12T14:23:00Z</time>
      </trkpt>
      <trkpt lat="47.71413" lon="3.56606">
        <ele>239</ele>
        <time>2023-05-12T14:23:42Z</time>
      </trkpt>
      <trkpt lat="47.71391" lon="3.56614">
        <ele>240</ele>
        <time>2023-05-12T14:24:01Z</time>
      </trkpt>
      <trkpt lat="47.71342" lon="3.56596">
        <ele>242</ele>
        <time>2023-05-12T14:24:41Z</time>
      </trkpt>
      <trkpt lat="47.71302" lon="3.56704">
        <ele>244</ele>
        <time>2023-05-12T14:25:47Z</time>
      </trkpt>
      <trkpt lat="47.71278" lon="3.56763">
        <ele>247</ele>
        <time>2023-05-12T14:26:25Z</time>
      </trkpt>
      <trkpt lat="47.71245" lon="3.56822">
        <ele>250</ele>
        <time>2023-05-12T14:27:06Z</time>
      </trkpt>
      <trkpt lat="47.71232" lon="3.56879">
        <ele>251</ele>
        <time>2023-05-12T14:27:38Z</time>
      </trkpt>
      <trkpt lat="47.71222" lon="3.56937">
        <ele>251</ele>
        <time>2023-05-12T14:28:11Z</time>
      </trkpt>
      <trkpt lat="47.71209" lon="3.57026">
        <ele>251</ele>
        <time>2023-05-12T14:29:00Z</time>
      </trkpt>
      <trkpt lat="47.7121" lon="3.57164">
        <ele>251</ele>
        <time>2023-05-12T14:30:14Z</time>
      </trkpt>
      <trkpt lat="47.71214" lon="3.57275">
        <ele>249</ele>
        <time>2023-05-12T14:31:14Z</time>
      </trkpt>
      <trkpt lat="47.71229" lon="3.57356">
        <ele>247</ele>
        <time>2023-05-12T14:31:59Z</time>
      </trkpt>
      <trkpt lat="47.71253" lon="3.57453">
        <ele>245</ele>
        <time>2023-05-12T14:32:55Z</time>
      </trkpt>
      <trkpt lat="47.71289" lon="3.57615">
        <ele>239</ele>
        <time>2023-05-12T14:34:27Z</time>
      </trkpt>
      <trkpt lat="47.71231" lon="3.57715">
        <ele>234</ele>
        <time>2023-05-12T14:35:38Z</time>
      </trkpt>
      <trkpt lat="47.71284" lon="3.57758">
        <ele>235</ele>
        <time>2023-05-12T14:36:26Z</time>
      </trkpt>
      <trkpt lat="47.71347" lon="3.57742">
        <ele>238</ele>
        <time>2023-05-12T14:37:17Z</time>
      </trkpt>
      <trkpt lat="47.71425" lon="3.57758">
        <ele>233</ele>
        <time>2023-05-12T14:38:20Z</time>
      </trkpt>
      <trkpt lat="47.7148" lon="3.57889">
        <ele>227</ele>
        <time>2023-05-12T14:39:44Z</time>
      </trkpt>
      <trkpt lat="47.71592" lon="3.57861">
        <ele>211</ele>
        <time>2023-05-12T14:41:15Z</time>
      </trkpt>
      <trkpt lat="47.71634" lon="3.58048">
        <ele>203</ele>
        <time>2023-05-12T14:43:01Z</time>
      </trkpt>
      <trkpt lat="47.71684" lon="3.58043">
        <ele>193</ele>
        <time>2023-05-12T14:43:41Z</time>
      </trkpt>
      <trkpt lat="47.71739" lon="3.58284">
        <ele>184</ele>
        <time>2023-05-12T14:45:58Z</time>
      </trkpt>
      <trkpt lat="47.71975" lon="3.58238">
        <ele>154</ele>
        <time>2023-05-12T14:49:09Z</time>
      </trkpt>
      <trkpt lat="47.71962" lon="3.58194">
        <ele>154</ele>
        <time>2023-05-12T14:49:34Z</time>
      </trkpt>
      <trkpt lat="47.72021" lon="3.58108">
        <ele>148</ele>
        <time>2023-05-12T14:50:41Z</time>
      </trkpt>
      <trkpt lat="47.72078" lon="3.58038">
        <ele>147</ele>
        <time>2023-05-12T14:51:40Z</time>
      </trkpt>
      <trkpt lat="47.72196" lon="3.58261">
        <ele>139</ele>
        <time>2023-05-12T14:54:13Z</time>
      </trkpt>
    </trkseg>
  </trk>
</gpx>